Salsbury Cove, Maine
Current Conditions -  °F | °C
As of 11:15 AM on Sunday 23 Nov 2014 (Local Time) from KBHB Reporting Station
Broken Clouds Broken Clouds  
Wind Chill: 50°   Ceiling: 9000
Heat Index: 50°   Visibility: 10mi
Dew Point: 37°   Wind: 3mph
Humidity: 62%   Direction: 260°W
Pressure: 30.06"   Gusts: NA
Location:  44.43°N, 68.28°W
Report Text: KBHB 231615Z AUTO 26003KT 10SM BKN090 10/03 A3006 RMK AO1
Loading
Personal Weather Stations






























Interactive Weather Map New forecast layout! Learn more

10-Day Weather Forecast

Advertisements
Track Severe Weather on mobile